createdAt,value
2024-01-05T00:02:05.643Z,0
2024-01-05T00:07:04.754Z,0
2024-01-05T00:12:02.681Z,0
2024-01-05T00:17:01.499Z,1.5
2024-01-05T00:21:59.654Z,0
2024-01-05T00:27:03.312Z,0
2024-01-05T00:31:59.604Z,0
2024-01-05T00:37:02.185Z,0
2024-01-05T00:42:02.248Z,0
2024-01-05T00:47:05.931Z,0
2024-01-05T00:52:01.920Z,0
2024-01-05T00:56:56.246Z,0
2024-01-05T01:02:07.795Z,0
2024-01-05T01:06:53.346Z,0
2024-01-05T01:11:54.874Z,0
2024-01-05T01:16:56.761Z,0
2024-01-05T01:21:56.410Z,0
2024-01-05T01:26:51.869Z,0
2024-01-05T01:31:54.308Z,0
2024-01-05T01:36:52.707Z,0
2024-01-05T01:41:49.501Z,0
2024-01-05T01:46:53.177Z,0
2024-01-05T01:51:50.683Z,0
2024-01-05T01:56:51.845Z,0
2024-01-05T02:01:55.116Z,0
2024-01-05T02:06:55.138Z,0
2024-01-05T02:11:51.951Z,0
2024-01-05T02:16:52.397Z,0
2024-01-05T02:21:54.241Z,0
2024-01-05T02:26:51.141Z,0
2024-01-05T02:31:55.395Z,0
2024-01-05T02:36:53.062Z,0
2024-01-05T02:41:52.555Z,0
2024-01-05T02:46:52.909Z,0
2024-01-05T02:51:55.363Z,0
2024-01-05T02:56:55.446Z,0
2024-01-05T03:01:57.477Z,0
2024-01-05T03:06:55.165Z,0
2024-01-05T03:11:51.844Z,0
2024-01-05T03:16:54.842Z,0
2024-01-05T03:21:52.188Z,0
2024-01-05T03:26:52.363Z,0
2024-01-05T03:32:00.846Z,0
2024-01-05T03:37:05.239Z,0
2024-01-05T03:42:05.802Z,0
2024-01-05T03:47:01.183Z,2.5
2024-01-05T03:52:08.851Z,0
2024-01-05T03:57:09.222Z,0
2024-01-05T04:02:07.130Z,0
2024-01-05T04:06:59.721Z,0
2024-01-05T04:11:52.791Z,0
2024-01-05T04:16:55.062Z,0
2024-01-05T04:21:52.197Z,0
2024-01-05T04:26:53.016Z,0
2024-01-05T04:31:52.429Z,0
2024-01-05T04:36:56.706Z,0
2024-01-05T04:41:55.962Z,0
2024-01-05T04:46:52.145Z,0
2024-01-05T04:51:55.588Z,0
2024-01-05T04:56:52.260Z,0
2024-01-05T05:01:52.262Z,0
2024-01-05T05:06:54.746Z,0
2024-01-05T05:11:53.089Z,0
2024-01-05T05:16:54.369Z,0
2024-01-05T05:21:52.438Z,0
2024-01-05T05:26:55.198Z,0
2024-01-05T05:31:54.863Z,0
2024-01-05T05:36:55.496Z,0
2024-01-05T05:41:52.227Z,1.333
2024-01-05T05:46:51.974Z,0
2024-01-05T05:51:53.350Z,1.5
2024-01-05T05:56:54.421Z,0
2024-01-05T06:01:58.997Z,3
2024-01-05T06:06:52.212Z,0
2024-01-05T06:11:52.972Z,0
2024-01-05T06:16:54.989Z,0
2024-01-05T06:21:54.515Z,1.471
2024-01-05T06:26:56.599Z,3.125
2024-01-05T06:31:59.458Z,7.692
2024-01-05T06:36:56.058Z,13.667
2024-01-05T06:41:56.671Z,19.692
2024-01-05T06:47:35.866Z,29.385
2024-01-05T06:51:54.782Z,42.8
2024-01-05T06:56:55.545Z,58.154
2024-01-05T07:01:57.031Z,81.231
2024-01-05T07:06:57.006Z,127.727
2024-01-05T07:11:55.951Z,168.2
2024-01-05T07:16:57.425Z,222
2024-01-05T07:21:55.652Z,264.25
2024-01-05T07:26:58.350Z,311.625
2024-01-05T07:31:57.124Z,401.375
2024-01-05T07:36:58.349Z,388.875
2024-01-05T07:42:00.579Z,479.25
2024-01-05T07:46:58.903Z,412
2024-01-05T07:51:58.695Z,395.75
2024-01-05T07:56:56.561Z,441.5
2024-01-05T08:02:02.857Z,592.875
2024-01-05T08:06:56.945Z,483
2024-01-05T08:11:59.768Z,667.625
2024-01-05T08:16:59.752Z,740.5
2024-01-05T08:22:00.180Z,954.5
2024-01-05T08:26:58.671Z,926.625
2024-01-05T08:32:01.042Z,740.125
2024-01-05T08:37:01.240Z,1185.125
2024-01-05T08:42:00.100Z,1234
2024-01-05T08:46:58.447Z,1397.125
2024-01-05T08:51:58.170Z,1314.375
2024-01-05T08:56:56.432Z,1241
2024-01-05T09:02:02.814Z,1252
2024-01-05T09:06:57.803Z,919
2024-01-05T09:11:56.964Z,943.875
2024-01-05T09:16:55.545Z,1021.125
2024-01-05T09:22:00.255Z,2298.167
2024-01-05T09:26:59.663Z,2478.167
2024-01-05T09:31:59.221Z,2446.333
2024-01-05T09:36:58.948Z,2390
2024-01-05T09:42:00.522Z,2352.5
2024-01-05T09:46:57.861Z,1779
2024-01-05T09:51:57.253Z,1190.75
2024-01-05T09:56:59.396Z,1894
2024-01-05T10:01:58.232Z,1320.375
2024-01-05T10:06:57.423Z,1210.875
2024-01-05T10:11:57.721Z,1045
2024-01-05T10:16:57.357Z,1103.5
2024-01-05T10:21:57.964Z,726
2024-01-05T10:26:58.724Z,645.875
2024-01-05T10:32:02.149Z,667.625
2024-01-05T10:36:56.059Z,646.5
2024-01-05T10:41:58.103Z,603.625
2024-01-05T10:47:00.018Z,614.625
2024-01-05T10:51:55.175Z,688.75
2024-01-05T10:56:56.054Z,690.125
2024-01-05T11:01:59.009Z,648.625
2024-01-05T11:06:56.999Z,740
2024-01-05T11:11:57.414Z,801.625
2024-01-05T11:16:55.670Z,822.125
2024-01-05T11:22:01.349Z,961.625
2024-01-05T11:26:58.542Z,1182.25
2024-01-05T11:31:59.053Z,932.25
2024-01-05T11:36:56.517Z,743.25
2024-01-05T11:41:57.573Z,695.75
2024-01-05T11:47:00.268Z,666.625
2024-01-05T11:51:55.844Z,673.125
2024-01-05T11:56:56.646Z,580.75
2024-01-05T12:01:57.276Z,549.125
2024-01-05T12:12:00.245Z,784.625
2024-01-05T12:21:56.016Z,757.875
2024-01-05T12:26:56.677Z,785
2024-01-05T12:31:57.505Z,744.25
2024-01-05T12:36:57.297Z,775.75
2024-01-05T12:42:00.525Z,735.625
2024-01-05T12:46:56.458Z,552.875
2024-01-05T12:51:56.906Z,481.75
2024-01-05T12:56:56.204Z,419
2024-01-05T13:01:58.464Z,263.9
2024-01-05T13:06:57.036Z,245.3
2024-01-05T13:11:55.188Z,290.333
2024-01-05T13:16:56.864Z,318.25
2024-01-05T13:21:55.943Z,353.75
2024-01-05T13:26:57.003Z,365.375
2024-01-05T13:32:01.015Z,409.25
2024-01-05T13:36:58.878Z,393.375
2024-01-05T13:41:56.245Z,308.875
2024-01-05T13:46:59.618Z,236.7
2024-01-05T13:51:57.148Z,178.545
2024-01-05T13:57:03.110Z,180.455
2024-01-05T14:01:59.812Z,199.1
2024-01-05T14:06:56.601Z,214.8
2024-01-05T14:11:58.202Z,201.2
2024-01-05T14:16:56.353Z,188
2024-01-05T14:22:00.326Z,178
2024-01-05T14:27:03.477Z,154.545
2024-01-05T14:31:57.877Z,126.083
2024-01-05T14:37:01.693Z,99.923
2024-01-05T14:41:59.911Z,88.923
2024-01-05T14:46:59.115Z,72.615
2024-01-05T14:51:56.208Z,55.533
2024-01-05T14:56:54.620Z,40.4
2024-01-05T15:02:01.376Z,28.538
2024-01-05T15:06:53.531Z,19.154
2024-01-05T15:11:55.250Z,13.429
2024-01-05T15:16:56.101Z,8.067
2024-01-05T15:21:54.770Z,4.118
2024-01-05T15:26:54.231Z,1.882
2024-01-05T15:31:55.255Z,1
2024-01-05T15:36:54.463Z,0
2024-01-05T15:41:53.412Z,0
2024-01-05T15:46:57.889Z,0
2024-01-05T15:51:53.230Z,0
2024-01-05T15:57:05.000Z,0
2024-01-05T16:02:00.370Z,0
2024-01-05T16:06:55.680Z,1
2024-01-05T16:11:56.485Z,0
2024-01-05T16:16:54.939Z,0
2024-01-05T16:21:51.116Z,0
2024-01-05T16:26:51.467Z,0
2024-01-05T16:31:53.604Z,0
2024-01-05T16:36:52.314Z,0
2024-01-05T16:41:55.007Z,2.333
2024-01-05T16:46:59.171Z,0
2024-01-05T16:51:51.521Z,0
2024-01-05T16:56:55.043Z,1.333
2024-01-05T17:01:56.320Z,0
2024-01-05T17:06:57.924Z,0
2024-01-05T17:11:57.184Z,0
2024-01-05T17:16:54.600Z,2.5
2024-01-05T17:21:52.249Z,0
2024-01-05T17:26:53.503Z,1.5
2024-01-05T17:31:54.387Z,0
2024-01-05T17:36:50.696Z,0
2024-01-05T17:41:49.986Z,0
2024-01-05T17:46:54.145Z,1.5
2024-01-05T17:51:54.181Z,2.5
2024-01-05T17:56:55.412Z,0
2024-01-05T18:02:01.034Z,0
2024-01-05T18:06:51.784Z,1.333
2024-01-05T18:11:52.727Z,1.333
2024-01-05T18:16:52.112Z,0
2024-01-05T18:21:56.793Z,0
2024-01-05T18:26:56.945Z,0
2024-01-05T18:31:57.050Z,0
2024-01-05T18:36:52.330Z,0
2024-01-05T18:41:52.085Z,2.5
2024-01-05T18:46:53.451Z,0
2024-01-05T18:51:53.065Z,0
2024-01-05T18:57:01.821Z,0
2024-01-05T19:01:51.590Z,0
2024-01-05T19:06:52.133Z,1
2024-01-05T19:11:59.932Z,0
2024-01-05T19:16:54.597Z,1
2024-01-05T19:21:56.378Z,0
2024-01-05T19:26:54.589Z,1
2024-01-05T19:31:53.593Z,0
2024-01-05T19:36:56.382Z,0
2024-01-05T19:41:52.454Z,0
2024-01-05T19:46:59.364Z,0
2024-01-05T19:51:56.073Z,1.5
2024-01-05T19:56:55.718Z,0
2024-01-05T20:01:54.690Z,3
2024-01-05T20:06:52.849Z,0
2024-01-05T20:11:52.738Z,0
2024-01-05T20:17:02.492Z,0
2024-01-05T20:21:55.010Z,0
2024-01-05T20:27:02.711Z,0
2024-01-05T20:31:56.660Z,0
2024-01-05T20:36:54.328Z,0
2024-01-05T20:41:52.745Z,0
2024-01-05T20:46:53.132Z,0
2024-01-05T20:51:59.439Z,0
2024-01-05T20:56:57.351Z,1
2024-01-05T21:01:50.736Z,2.5
2024-01-05T21:06:55.344Z,0
2024-01-05T21:11:53.648Z,0
2024-01-05T21:17:03.204Z,0
2024-01-05T21:21:57.646Z,0
2024-01-05T21:26:54.649Z,1.5
2024-01-05T21:31:54.617Z,2.333
2024-01-05T21:36:52.770Z,0
2024-01-05T21:41:55.224Z,0
2024-01-05T21:46:59.184Z,2.5
2024-01-05T21:51:51.057Z,2.5
2024-01-05T21:56:59.176Z,2.5
2024-01-05T22:01:49.629Z,0
2024-01-05T22:06:47.352Z,0
2024-01-05T22:11:49.497Z,0
2024-01-05T22:16:54.840Z,0
2024-01-05T22:21:54.806Z,0
2024-01-05T22:26:55.194Z,0
2024-01-05T22:31:58.819Z,0
2024-01-05T22:36:59.916Z,0
2024-01-05T22:41:56.402Z,0
2024-01-05T22:46:55.782Z,0
2024-01-05T22:51:52.909Z,0
2024-01-05T22:56:56.757Z,0
2024-01-05T23:02:03.355Z,0
2024-01-05T23:06:56.474Z,0
2024-01-05T23:11:56.124Z,0
2024-01-05T23:16:57.205Z,2.5
2024-01-05T23:21:52.634Z,0
2024-01-05T23:26:53.072Z,2.5
2024-01-05T23:31:51.359Z,0
2024-01-05T23:36:49.037Z,0
2024-01-05T23:41:54.540Z,0
2024-01-05T23:46:49.947Z,0
2024-01-05T23:51:51.949Z,0
2024-01-05T23:56:51.274Z,0
